sensor_id;sensor_type;location;lat;lon;timestamp;P1;durP1;ratioP1;P2;durP2;ratioP2
20375;SDS011;10347;51.828;6.466;2022-08-11T00:01:46;2.20;;;1.33;;
20375;SDS011;10347;51.828;6.466;2022-08-11T00:04:13;1.83;;;1.40;;
20375;SDS011;10347;51.828;6.466;2022-08-11T00:06:40;4.22;;;1.70;;
20375;SDS011;10347;51.828;6.466;2022-08-11T00:09:08;1.38;;;1.27;;
20375;SDS011;10347;51.828;6.466;2022-08-11T00:11:42;1.88;;;1.50;;
20375;SDS011;10347;51.828;6.466;2022-08-11T00:14:23;1.60;;;1.40;;
20375;SDS011;10347;51.828;6.466;2022-08-11T00:17:02;2.78;;;1.77;;
20375;SDS011;10347;51.828;6.466;2022-08-11T00:19:43;2.72;;;1.58;;
20375;SDS011;10347;51.828;6.466;2022-08-11T00:22:10;1.80;;;1.60;;
20375;SDS011;10347;51.828;6.466;2022-08-11T00:24:43;1.83;;;1.73;;
20375;SDS011;10347;51.828;6.466;2022-08-11T00:27:09;1.80;;;1.70;;
20375;SDS011;10347;51.828;6.466;2022-08-11T00:29:34;2.53;;;1.40;;
20375;SDS011;10347;51.828;6.466;2022-08-11T00:32:01;1.40;;;1.30;;
20375;SDS011;10347;51.828;6.466;2022-08-11T00:34:30;3.40;;;1.73;;
20375;SDS011;10347;51.828;6.466;2022-08-11T00:37:02;1.60;;;1.50;;
20375;SDS011;10347;51.828;6.466;2022-08-11T00:39:32;2.22;;;1.40;;
20375;SDS011;10347;51.828;6.466;2022-08-11T00:42:10;1.73;;;1.58;;
20375;SDS011;10347;51.828;6.466;2022-08-11T00:47:52;2.35;;;1.88;;
20375;SDS011;10347;51.828;6.466;2022-08-11T00:50:28;2.97;;;1.45;;
20375;SDS011;10347;51.828;6.466;2022-08-11T00:53:35;1.42;;;1.33;;
20375;SDS011;10347;51.828;6.466;2022-08-11T00:59:13;1.65;;;1.55;;
20375;SDS011;10347;51.828;6.466;2022-08-11T01:02:08;1.50;;;1.40;;
20375;SDS011;10347;51.828;6.466;2022-08-11T01:30:53;2.55;;;1.88;;
20375;SDS011;10347;51.828;6.466;2022-08-11T01:36:47;1.50;;;1.40;;
20375;SDS011;10347;51.828;6.466;2022-08-11T01:48:01;3.70;;;1.70;;
20375;SDS011;10347;51.828;6.466;2022-08-11T01:50:49;2.72;;;1.77;;
20375;SDS011;10347;51.828;6.466;2022-08-11T01:53:46;1.70;;;1.60;;
20375;SDS011;10347;51.828;6.466;2022-08-11T01:56:28;2.50;;;1.95;;
20375;SDS011;10347;51.828;6.466;2022-08-11T02:01:56;2.55;;;1.80;;
20375;SDS011;10347;51.828;6.466;2022-08-11T02:05:17;1.95;;;1.85;;
20375;SDS011;10347;51.828;6.466;2022-08-11T02:11:21;1.80;;;1.70;;
20375;SDS011;10347;51.828;6.466;2022-08-11T02:25:34;3.20;;;1.70;;
20375;SDS011;10347;51.828;6.466;2022-08-11T02:34:04;1.48;;;1.38;;
20375;SDS011;10347;51.828;6.466;2022-08-11T02:36:44;1.73;;;1.55;;
20375;SDS011;10347;51.828;6.466;2022-08-11T02:39:19;2.97;;;1.90;;
20375;SDS011;10347;51.828;6.466;2022-08-11T02:41:54;1.85;;;1.75;;
20375;SDS011;10347;51.828;6.466;2022-08-11T02:59:05;2.65;;;1.60;;
20375;SDS011;10347;51.828;6.466;2022-08-11T03:07:59;1.95;;;1.75;;
20375;SDS011;10347;51.828;6.466;2022-08-11T03:14:54;2.10;;;2.00;;
20375;SDS011;10347;51.828;6.466;2022-08-11T03:17:31;2.35;;;1.83;;
20375;SDS011;10347;51.828;6.466;2022-08-11T03:20:10;3.13;;;2.13;;
20375;SDS011;10347;51.828;6.466;2022-08-11T03:26:07;2.65;;;2.10;;
20375;SDS011;10347;51.828;6.466;2022-08-11T03:29:07;1.95;;;1.80;;
20375;SDS011;10347;51.828;6.466;2022-08-11T03:34:21;2.13;;;1.90;;
20375;SDS011;10347;51.828;6.466;2022-08-11T03:40:05;2.10;;;2.00;;
20375;SDS011;10347;51.828;6.466;2022-08-11T03:43:18;2.25;;;1.90;;
20375;SDS011;10347;51.828;6.466;2022-08-11T03:46:12;2.95;;;2.38;;
20375;SDS011;10347;51.828;6.466;2022-08-11T03:48:48;3.53;;;2.50;;
20375;SDS011;10347;51.828;6.466;2022-08-11T03:51:38;2.63;;;2.42;;
20375;SDS011;10347;51.828;6.466;2022-08-11T03:57:25;2.38;;;2.17;;
20375;SDS011;10347;51.828;6.466;2022-08-11T04:00:04;2.30;;;2.10;;
20375;SDS011;10347;51.828;6.466;2022-08-11T04:11:22;2.25;;;2.15;;
20375;SDS011;10347;51.828;6.466;2022-08-11T04:14:34;2.05;;;1.95;;
20375;SDS011;10347;51.828;6.466;2022-08-11T04:26:20;2.67;;;2.50;;
20375;SDS011;10347;51.828;6.466;2022-08-11T04:28:41;2.17;;;2.00;;
20375;SDS011;10347;51.828;6.466;2022-08-11T04:46:00;2.95;;;2.50;;
20375;SDS011;10347;51.828;6.466;2022-08-11T04:58:06;2.67;;;2.17;;
20375;SDS011;10347;51.828;6.466;2022-08-11T05:15:11;2.58;;;2.38;;
20375;SDS011;10347;51.828;6.466;2022-08-11T05:18:01;2.63;;;2.42;;
20375;SDS011;10347;51.828;6.466;2022-08-11T05:21:02;2.83;;;2.60;;
20375;SDS011;10347;51.828;6.466;2022-08-11T05:23:53;3.03;;;2.50;;
20375;SDS011;10347;51.828;6.466;2022-08-11T05:26:46;5.65;;;2.85;;
20375;SDS011;10347;51.828;6.466;2022-08-11T05:29:40;3.45;;;3.00;;
20375;SDS011;10347;51.828;6.466;2022-08-11T05:32:30;3.08;;;2.47;;
20375;SDS011;10347;51.828;6.466;2022-08-11T05:35:42;2.88;;;2.47;;
20375;SDS011;10347;51.828;6.466;2022-08-11T05:38:15;2.55;;;2.45;;
20375;SDS011;10347;51.828;6.466;2022-08-11T05:41:03;2.60;;;2.40;;
20375;SDS011;10347;51.828;6.466;2022-08-11T05:43:49;2.65;;;2.45;;
20375;SDS011;10347;51.828;6.466;2022-08-11T05:46:38;3.20;;;2.70;;
20375;SDS011;10347;51.828;6.466;2022-08-11T05:49:28;2.67;;;2.50;;
20375;SDS011;10347;51.828;6.466;2022-08-11T05:52:19;3.00;;;2.70;;
20375;SDS011;10347;51.828;6.466;2022-08-11T05:55:08;2.42;;;2.22;;
20375;SDS011;10347;51.828;6.466;2022-08-11T05:58:05;3.58;;;2.38;;
20375;SDS011;10347;51.828;6.466;2022-08-11T06:00:42;3.40;;;2.40;;
20375;SDS011;10347;51.828;6.466;2022-08-11T06:03:10;4.70;;;2.30;;
20375;SDS011;10347;51.828;6.466;2022-08-11T06:05:37;5.75;;;2.80;;
20375;SDS011;10347;51.828;6.466;2022-08-11T06:08:06;2.70;;;2.50;;
20375;SDS011;10347;51.828;6.466;2022-08-11T06:10:34;2.60;;;2.40;;
20375;SDS011;10347;51.828;6.466;2022-08-11T06:13:02;2.33;;;2.13;;
20375;SDS011;10347;51.828;6.466;2022-08-11T06:15:30;1.92;;;1.83;;
20375;SDS011;10347;51.828;6.466;2022-08-11T06:17:58;2.17;;;2.00;;
20375;SDS011;10347;51.828;6.466;2022-08-11T06:20:26;2.50;;;2.28;;
20375;SDS011;10347;51.828;6.466;2022-08-11T06:22:58;3.17;;;2.08;;
20375;SDS011;10347;51.828;6.466;2022-08-11T06:25:31;4.78;;;2.75;;
20375;SDS011;10347;51.828;6.466;2022-08-11T06:27:59;4.20;;;2.70;;
20375;SDS011;10347;51.828;6.466;2022-08-11T06:30:40;2.30;;;2.10;;
20375;SDS011;10347;51.828;6.466;2022-08-11T06:33:16;2.15;;;1.98;;
20375;SDS011;10347;51.828;6.466;2022-08-11T06:36:04;2.25;;;2.05;;
20375;SDS011;10347;51.828;6.466;2022-08-11T06:38:48;4.53;;;2.55;;
20375;SDS011;10347;51.828;6.466;2022-08-11T06:41:25;2.38;;;2.22;;
20375;SDS011;10347;51.828;6.466;2022-08-11T06:46:38;4.07;;;2.50;;
20375;SDS011;10347;51.828;6.466;2022-08-11T06:49:10;3.10;;;2.60;;
20375;SDS011;10347;51.828;6.466;2022-08-11T06:51:59;6.47;;;2.95;;
20375;SDS011;10347;51.828;6.466;2022-08-11T06:54:28;5.13;;;2.25;;
20375;SDS011;10347;51.828;6.466;2022-08-11T06:56:57;4.15;;;2.65;;
20375;SDS011;10347;51.828;6.466;2022-08-11T06:59:43;4.22;;;2.60;;
20375;SDS011;10347;51.828;6.466;2022-08-11T07:03:10;2.15;;;1.95;;
20375;SDS011;10347;51.828;6.466;2022-08-11T07:05:22;3.72;;;2.10;;
20375;SDS011;10347;51.828;6.466;2022-08-11T07:11:00;4.50;;;2.28;;
20375;SDS011;10347;51.828;6.466;2022-08-11T07:14:07;4.90;;;2.15;;
20375;SDS011;10347;51.828;6.466;2022-08-11T07:16:53;4.68;;;2.33;;
20375;SDS011;10347;51.828;6.466;2022-08-11T07:19:26;2.20;;;2.03;;
20375;SDS011;10347;51.828;6.466;2022-08-11T07:22:11;3.20;;;1.90;;
20375;SDS011;10347;51.828;6.466;2022-08-11T07:25:01;4.75;;;2.17;;
20375;SDS011;10347;51.828;6.466;2022-08-11T07:28:04;2.83;;;2.10;;
20375;SDS011;10347;51.828;6.466;2022-08-11T07:31:12;3.13;;;2.28;;
20375;SDS011;10347;51.828;6.466;2022-08-11T07:33:46;3.03;;;1.70;;
20375;SDS011;10347;51.828;6.466;2022-08-11T07:36:14;3.88;;;2.17;;
20375;SDS011;10347;51.828;6.466;2022-08-11T07:38:43;3.47;;;2.03;;
20375;SDS011;10347;51.828;6.466;2022-08-11T07:41:16;3.40;;;1.75;;
20375;SDS011;10347;51.828;6.466;2022-08-11T07:43:43;4.43;;;1.92;;
20375;SDS011;10347;51.828;6.466;2022-08-11T07:46:13;2.97;;;2.10;;
20375;SDS011;10347;51.828;6.466;2022-08-11T07:48:58;1.92;;;1.70;;
20375;SDS011;10347;51.828;6.466;2022-08-11T07:51:44;3.08;;;1.90;;
20375;SDS011;10347;51.828;6.466;2022-08-11T07:54:29;7.60;;;2.00;;
20375;SDS011;10347;51.828;6.466;2022-08-11T07:56:54;2.63;;;1.63;;
20375;SDS011;10347;51.828;6.466;2022-08-11T07:59:21;3.28;;;1.75;;
20375;SDS011;10347;51.828;6.466;2022-08-11T08:02:07;3.83;;;1.83;;
20375;SDS011;10347;51.828;6.466;2022-08-11T08:04:54;3.42;;;2.08;;
20375;SDS011;10347;51.828;6.466;2022-08-11T08:07:40;3.33;;;1.98;;
20375;SDS011;10347;51.828;6.466;2022-08-11T08:10:24;3.70;;;1.80;;
20375;SDS011;10347;51.828;6.466;2022-08-11T08:13:08;3.50;;;1.90;;
20375;SDS011;10347;51.828;6.466;2022-08-11T08:15:53;4.75;;;1.95;;
20375;SDS011;10347;51.828;6.466;2022-08-11T08:18:37;3.40;;;1.95;;
20375;SDS011;10347;51.828;6.466;2022-08-11T08:21:04;2.65;;;1.80;;
20375;SDS011;10347;51.828;6.466;2022-08-11T08:23:39;2.22;;;2.03;;
20375;SDS011;10347;51.828;6.466;2022-08-11T08:26:07;2.30;;;2.05;;
20375;SDS011;10347;51.828;6.466;2022-08-11T08:28:56;2.72;;;1.70;;
20375;SDS011;10347;51.828;6.466;2022-08-11T08:31:44;3.10;;;1.60;;
20375;SDS011;10347;51.828;6.466;2022-08-11T08:34:12;3.60;;;1.50;;
20375;SDS011;10347;51.828;6.466;2022-08-11T08:36:41;2.30;;;1.70;;
20375;SDS011;10347;51.828;6.466;2022-08-11T08:39:09;1.70;;;1.60;;
20375;SDS011;10347;51.828;6.466;2022-08-11T08:41:37;1.80;;;1.70;;
20375;SDS011;10347;51.828;6.466;2022-08-11T08:44:07;2.20;;;1.60;;
20375;SDS011;10347;51.828;6.466;2022-08-11T08:46:45;1.70;;;1.50;;
20375;SDS011;10347;51.828;6.466;2022-08-11T08:49:15;4.28;;;1.70;;
20375;SDS011;10347;51.828;6.466;2022-08-11T08:51:48;1.70;;;1.60;;
20375;SDS011;10347;51.828;6.466;2022-08-11T08:54:22;3.75;;;1.92;;
20375;SDS011;10347;51.828;6.466;2022-08-11T08:56:54;1.80;;;1.67;;
20375;SDS011;10347;51.828;6.466;2022-08-11T08:59:21;1.80;;;1.70;;
20375;SDS011;10347;51.828;6.466;2022-08-11T09:01:52;3.10;;;1.70;;
20375;SDS011;10347;51.828;6.466;2022-08-11T09:04:22;2.42;;;1.83;;
20375;SDS011;10347;51.828;6.466;2022-08-11T09:06:48;1.83;;;1.73;;
20375;SDS011;10347;51.828;6.466;2022-08-11T09:09:15;5.82;;;2.10;;
20375;SDS011;10347;51.828;6.466;2022-08-11T09:11:42;2.30;;;1.70;;
20375;SDS011;10347;51.828;6.466;2022-08-11T09:14:15;4.03;;;1.60;;
20375;SDS011;10347;51.828;6.466;2022-08-11T09:16:42;2.50;;;1.98;;
20375;SDS011;10347;51.828;6.466;2022-08-11T09:19:09;3.75;;;1.70;;
20375;SDS011;10347;51.828;6.466;2022-08-11T09:21:40;4.65;;;1.92;;
20375;SDS011;10347;51.828;6.466;2022-08-11T09:24:07;2.35;;;2.25;;
20375;SDS011;10347;51.828;6.466;2022-08-11T09:26:51;2.10;;;1.90;;
20375;SDS011;10347;51.828;6.466;2022-08-11T09:29:23;1.90;;;1.80;;
20375;SDS011;10347;51.828;6.466;2022-08-11T09:31:53;3.08;;;1.83;;
20375;SDS011;10347;51.828;6.466;2022-08-11T09:34:20;1.95;;;1.58;;
20375;SDS011;10347;51.828;6.466;2022-08-11T09:36:46;2.22;;;1.55;;
20375;SDS011;10347;51.828;6.466;2022-08-11T09:39:31;1.88;;;1.75;;
20375;SDS011;10347;51.828;6.466;2022-08-11T09:42:20;2.72;;;1.70;;
20375;SDS011;10347;51.828;6.466;2022-08-11T09:44:47;1.58;;;1.50;;
20375;SDS011;10347;51.828;6.466;2022-08-11T09:47:17;4.22;;;1.90;;
20375;SDS011;10347;51.828;6.466;2022-08-11T09:49:48;2.85;;;1.77;;
20375;SDS011;10347;51.828;6.466;2022-08-11T09:52:17;2.03;;;1.80;;
20375;SDS011;10347;51.828;6.466;2022-08-11T09:54:43;8.43;;;2.63;;
20375;SDS011;10347;51.828;6.466;2022-08-11T09:57:12;3.95;;;2.05;;
20375;SDS011;10347;51.828;6.466;2022-08-11T09:59:56;3.35;;;1.60;;
20375;SDS011;10347;51.828;6.466;2022-08-11T10:02:23;2.35;;;1.90;;
20375;SDS011;10347;51.828;6.466;2022-08-11T10:04:51;4.45;;;2.20;;
20375;SDS011;10347;51.828;6.466;2022-08-11T10:07:46;4.63;;;2.13;;
20375;SDS011;10347;51.828;6.466;2022-08-11T10:10:16;4.95;;;2.10;;
20375;SDS011;10347;51.828;6.466;2022-08-11T10:12:51;3.75;;;2.33;;
20375;SDS011;10347;51.828;6.466;2022-08-11T10:15:23;2.45;;;1.90;;
20375;SDS011;10347;51.828;6.466;2022-08-11T10:18:03;2.45;;;1.38;;
20375;SDS011;10347;51.828;6.466;2022-08-11T10:20:48;1.65;;;1.55;;
20375;SDS011;10347;51.828;6.466;2022-08-11T10:23:15;9.27;;;2.25;;
20375;SDS011;10347;51.828;6.466;2022-08-11T10:26:01;2.15;;;1.70;;
20375;SDS011;10347;51.828;6.466;2022-08-11T10:28:45;2.50;;;2.00;;
20375;SDS011;10347;51.828;6.466;2022-08-11T10:31:12;2.15;;;1.90;;
20375;SDS011;10347;51.828;6.466;2022-08-11T10:33:56;1.80;;;1.70;;
20375;SDS011;10347;51.828;6.466;2022-08-11T10:36:29;3.90;;;1.65;;
20375;SDS011;10347;51.828;6.466;2022-08-11T10:38:57;2.03;;;1.83;;
20375;SDS011;10347;51.828;6.466;2022-08-11T10:41:25;2.45;;;1.70;;
20375;SDS011;10347;51.828;6.466;2022-08-11T10:44:10;2.97;;;1.90;;
20375;SDS011;10347;51.828;6.466;2022-08-11T10:46:38;3.45;;;1.70;;
20375;SDS011;10347;51.828;6.466;2022-08-11T10:49:23;5.65;;;1.90;;
20375;SDS011;10347;51.828;6.466;2022-08-11T10:51:50;7.60;;;2.20;;
20375;SDS011;10347;51.828;6.466;2022-08-11T10:54:35;2.03;;;1.67;;
20375;SDS011;10347;51.828;6.466;2022-08-11T10:57:23;2.47;;;1.55;;
20375;SDS011;10347;51.828;6.466;2022-08-11T11:00:09;3.97;;;1.40;;
20375;SDS011;10347;51.828;6.466;2022-08-11T11:02:39;1.70;;;1.60;;
20375;SDS011;10347;51.828;6.466;2022-08-11T11:05:25;2.45;;;1.70;;
20375;SDS011;10347;51.828;6.466;2022-08-11T11:08:00;2.95;;;1.90;;
20375;SDS011;10347;51.828;6.466;2022-08-11T11:10:55;1.63;;;1.40;;
20375;SDS011;10347;51.828;6.466;2022-08-11T11:13:22;3.38;;;2.00;;
20375;SDS011;10347;51.828;6.466;2022-08-11T11:16:07;1.92;;;1.83;;
20375;SDS011;10347;51.828;6.466;2022-08-11T11:19:09;2.30;;;1.60;;
20375;SDS011;10347;51.828;6.466;2022-08-11T11:21:37;5.53;;;1.40;;
20375;SDS011;10347;51.828;6.466;2022-08-11T11:24:15;1.85;;;1.73;;
20375;SDS011;10347;51.828;6.466;2022-08-11T11:26:51;3.35;;;1.80;;
20375;SDS011;10347;51.828;6.466;2022-08-11T11:29:32;6.10;;;1.65;;
20375;SDS011;10347;51.828;6.466;2022-08-11T11:35:10;3.60;;;1.60;;
20375;SDS011;10347;51.828;6.466;2022-08-11T11:38:05;1.17;;;1.17;;
20375;SDS011;10347;51.828;6.466;2022-08-11T11:40:33;6.32;;;1.70;;
20375;SDS011;10347;51.828;6.466;2022-08-11T11:43:01;2.33;;;1.48;;
20375;SDS011;10347;51.828;6.466;2022-08-11T11:45:27;1.73;;;1.63;;
20375;SDS011;10347;51.828;6.466;2022-08-11T11:47:55;2.15;;;1.80;;
20375;SDS011;10347;51.828;6.466;2022-08-11T11:52:51;2.55;;;1.50;;
20375;SDS011;10347;51.828;6.466;2022-08-11T11:55:19;1.05;;;1.05;;
20375;SDS011;10347;51.828;6.466;2022-08-11T11:57:47;3.05;;;1.60;;
20375;SDS011;10347;51.828;6.466;2022-08-11T12:00:31;5.93;;;1.75;;
20375;SDS011;10347;51.828;6.466;2022-08-11T12:03:16;3.72;;;2.20;;
20375;SDS011;10347;51.828;6.466;2022-08-11T12:05:43;2.55;;;1.70;;
20375;SDS011;10347;51.828;6.466;2022-08-11T12:08:10;3.00;;;1.55;;
20375;SDS011;10347;51.828;6.466;2022-08-11T12:10:47;3.75;;;1.80;;
20375;SDS011;10347;51.828;6.466;2022-08-11T12:13:41;3.15;;;1.58;;
20375;SDS011;10347;51.828;6.466;2022-08-11T12:16:09;1.95;;;1.77;;
20375;SDS011;10347;51.828;6.466;2022-08-11T12:18:37;3.42;;;1.55;;
20375;SDS011;10347;51.828;6.466;2022-08-11T12:21:06;1.95;;;1.80;;
20375;SDS011;10347;51.828;6.466;2022-08-11T12:23:36;1.70;;;1.60;;
20375;SDS011;10347;51.828;6.466;2022-08-11T12:26:22;5.82;;;1.80;;
20375;SDS011;10347;51.828;6.466;2022-08-11T12:29:09;3.05;;;1.80;;
20375;SDS011;10347;51.828;6.466;2022-08-11T12:31:36;2.40;;;1.40;;
20375;SDS011;10347;51.828;6.466;2022-08-11T12:34:04;1.77;;;1.67;;
20375;SDS011;10347;51.828;6.466;2022-08-11T12:36:38;1.02;;;1.02;;
20375;SDS011;10347;51.828;6.466;2022-08-11T12:39:11;1.50;;;1.40;;
20375;SDS011;10347;51.828;6.466;2022-08-11T12:41:37;1.95;;;1.55;;
20375;SDS011;10347;51.828;6.466;2022-08-11T12:44:25;2.30;;;1.50;;
20375;SDS011;10347;51.828;6.466;2022-08-11T12:47:12;7.47;;;2.03;;
20375;SDS011;10347;51.828;6.466;2022-08-11T12:49:43;4.30;;;1.40;;
20375;SDS011;10347;51.828;6.466;2022-08-11T12:52:31;3.80;;;1.50;;
20375;SDS011;10347;51.828;6.466;2022-08-11T12:57:39;6.57;;;1.75;;
20375;SDS011;10347;51.828;6.466;2022-08-11T13:00:28;4.13;;;1.40;;
20375;SDS011;10347;51.828;6.466;2022-08-11T13:03:13;1.42;;;1.33;;
20375;SDS011;10347;51.828;6.466;2022-08-11T13:06:01;1.73;;;1.52;;
20375;SDS011;10347;51.828;6.466;2022-08-11T13:08:28;2.55;;;1.27;;
20375;SDS011;10347;51.828;6.466;2022-08-11T13:10:59;1.30;;;1.25;;
20375;SDS011;10347;51.828;6.466;2022-08-11T13:13:45;4.22;;;1.83;;
20375;SDS011;10347;51.828;6.466;2022-08-11T13:16:12;2.13;;;1.60;;
20375;SDS011;10347;51.828;6.466;2022-08-11T13:18:39;3.55;;;1.52;;
20375;SDS011;10347;51.828;6.466;2022-08-11T13:21:07;2.00;;;1.90;;
20375;SDS011;10347;51.828;6.466;2022-08-11T13:23:35;3.08;;;1.50;;
20375;SDS011;10347;51.828;6.466;2022-08-11T13:26:02;2.25;;;1.50;;
20375;SDS011;10347;51.828;6.466;2022-08-11T13:28:29;2.25;;;1.48;;
20375;SDS011;10347;51.828;6.466;2022-08-11T13:30:55;4.07;;;1.60;;
20375;SDS011;10347;51.828;6.466;2022-08-11T13:33:39;1.48;;;1.40;;
20375;SDS011;10347;51.828;6.466;2022-08-11T13:36:07;3.67;;;1.40;;
20375;SDS011;10347;51.828;6.466;2022-08-11T13:38:34;1.60;;;1.35;;
20375;SDS011;10347;51.828;6.466;2022-08-11T13:41:01;2.05;;;1.20;;
20375;SDS011;10347;51.828;6.466;2022-08-11T13:43:47;1.40;;;1.30;;
20375;SDS011;10347;51.828;6.466;2022-08-11T13:46:13;2.28;;;1.30;;
20375;SDS011;10347;51.828;6.466;2022-08-11T13:48:44;1.80;;;1.70;;
20375;SDS011;10347;51.828;6.466;2022-08-11T13:51:10;1.60;;;1.50;;
20375;SDS011;10347;51.828;6.466;2022-08-11T13:56:28;4.85;;;1.48;;
20375;SDS011;10347;51.828;6.466;2022-08-11T13:58:55;3.15;;;1.58;;
20375;SDS011;10347;51.828;6.466;2022-08-11T14:01:24;3.00;;;1.30;;
20375;SDS011;10347;51.828;6.466;2022-08-11T14:03:57;1.70;;;1.60;;
20375;SDS011;10347;51.828;6.466;2022-08-11T14:06:29;1.50;;;1.40;;
20375;SDS011;10347;51.828;6.466;2022-08-11T14:08:56;3.10;;;2.75;;
20375;SDS011;10347;51.828;6.466;2022-08-11T14:11:23;3.17;;;1.70;;
20375;SDS011;10347;51.828;6.466;2022-08-11T14:14:09;1.23;;;1.23;;
20375;SDS011;10347;51.828;6.466;2022-08-11T14:16:42;1.95;;;1.58;;
20375;SDS011;10347;51.828;6.466;2022-08-11T14:19:11;1.35;;;1.00;;
20375;SDS011;10347;51.828;6.466;2022-08-11T14:21:39;2.35;;;1.50;;
20375;SDS011;10347;51.828;6.466;2022-08-11T14:24:26;1.88;;;1.35;;
20375;SDS011;10347;51.828;6.466;2022-08-11T14:26:53;3.08;;;1.75;;
20375;SDS011;10347;51.828;6.466;2022-08-11T14:29:20;1.58;;;1.48;;
20375;SDS011;10347;51.828;6.466;2022-08-11T14:31:50;1.40;;;1.30;;
20375;SDS011;10347;51.828;6.466;2022-08-11T14:34:22;1.50;;;1.40;;
20375;SDS011;10347;51.828;6.466;2022-08-11T14:36:51;4.72;;;1.25;;
20375;SDS011;10347;51.828;6.466;2022-08-11T14:39:24;4.47;;;1.65;;
20375;SDS011;10347;51.828;6.466;2022-08-11T14:41:52;2.58;;;1.30;;
20375;SDS011;10347;51.828;6.466;2022-08-11T14:45:02;2.00;;;1.30;;
20375;SDS011;10347;51.828;6.466;2022-08-11T14:47:53;1.30;;;1.20;;
20375;SDS011;10347;51.828;6.466;2022-08-11T14:50:22;2.10;;;1.30;;
20375;SDS011;10347;51.828;6.466;2022-08-11T14:55:19;1.92;;;1.27;;
20375;SDS011;10347;51.828;6.466;2022-08-11T14:58:04;3.88;;;1.63;;
20375;SDS011;10347;51.828;6.466;2022-08-11T15:00:33;2.35;;;1.50;;
20375;SDS011;10347;51.828;6.466;2022-08-11T15:03:00;1.50;;;1.50;;
20375;SDS011;10347;51.828;6.466;2022-08-11T15:05:34;1.27;;;1.17;;
20375;SDS011;10347;51.828;6.466;2022-08-11T15:08:06;1.40;;;1.30;;
20375;SDS011;10347;51.828;6.466;2022-08-11T15:10:33;4.40;;;1.60;;
20375;SDS011;10347;51.828;6.466;2022-08-11T15:12:59;2.97;;;1.50;;
20375;SDS011;10347;51.828;6.466;2022-08-11T15:15:25;1.50;;;1.40;;
20375;SDS011;10347;51.828;6.466;2022-08-11T15:18:10;3.00;;;1.55;;
20375;SDS011;10347;51.828;6.466;2022-08-11T15:20:41;2.20;;;1.40;;
20375;SDS011;10347;51.828;6.466;2022-08-11T15:23:26;2.97;;;1.58;;
20375;SDS011;10347;51.828;6.466;2022-08-11T15:26:12;2.58;;;1.40;;
20375;SDS011;10347;51.828;6.466;2022-08-11T15:28:48;1.77;;;1.40;;
20375;SDS011;10347;51.828;6.466;2022-08-11T15:31:34;3.58;;;1.88;;
20375;SDS011;10347;51.828;6.466;2022-08-11T15:34:20;1.50;;;1.40;;
20375;SDS011;10347;51.828;6.466;2022-08-11T15:37:10;1.85;;;1.60;;
20375;SDS011;10347;51.828;6.466;2022-08-11T15:39:52;4.03;;;1.50;;
20375;SDS011;10347;51.828;6.466;2022-08-11T15:45:45;1.70;;;1.15;;
20375;SDS011;10347;51.828;6.466;2022-08-11T15:48:18;2.85;;;1.30;;
20375;SDS011;10347;51.828;6.466;2022-08-11T15:50:51;2.92;;;1.48;;
20375;SDS011;10347;51.828;6.466;2022-08-11T15:55:57;1.60;;;1.50;;
20375;SDS011;10347;51.828;6.466;2022-08-11T15:58:24;2.88;;;1.40;;
20375;SDS011;10347;51.828;6.466;2022-08-11T16:01:14;5.00;;;1.80;;
20375;SDS011;10347;51.828;6.466;2022-08-11T16:04:02;3.33;;;1.30;;
20375;SDS011;10347;51.828;6.466;2022-08-11T16:06:54;2.53;;;1.60;;
20375;SDS011;10347;51.828;6.466;2022-08-11T16:09:47;1.45;;;1.30;;
20375;SDS011;10347;51.828;6.466;2022-08-11T16:12:42;3.42;;;1.30;;
20375;SDS011;10347;51.828;6.466;2022-08-11T16:15:48;1.27;;;1.17;;
20375;SDS011;10347;51.828;6.466;2022-08-11T16:18:45;2.60;;;1.40;;
20375;SDS011;10347;51.828;6.466;2022-08-11T16:21:17;1.35;;;1.05;;
20375;SDS011;10347;51.828;6.466;2022-08-11T16:23:48;1.67;;;1.30;;
20375;SDS011;10347;51.828;6.466;2022-08-11T16:26:16;3.30;;;1.45;;
20375;SDS011;10347;51.828;6.466;2022-08-11T16:28:48;1.52;;;1.42;;
20375;SDS011;10347;51.828;6.466;2022-08-11T16:31:16;1.85;;;1.27;;
20375;SDS011;10347;51.828;6.466;2022-08-11T16:33:45;2.33;;;1.40;;
20375;SDS011;10347;51.828;6.466;2022-08-11T16:36:13;3.35;;;1.83;;
20375;SDS011;10347;51.828;6.466;2022-08-11T16:38:59;1.15;;;1.00;;
20375;SDS011;10347;51.828;6.466;2022-08-11T16:41:28;3.95;;;1.60;;
20375;SDS011;10347;51.828;6.466;2022-08-11T16:44:15;1.55;;;1.30;;
20375;SDS011;10347;51.828;6.466;2022-08-11T16:47:00;1.48;;;1.38;;
20375;SDS011;10347;51.828;6.466;2022-08-11T16:49:35;1.10;;;1.00;;
20375;SDS011;10347;51.828;6.466;2022-08-11T16:52:03;1.77;;;1.23;;
20375;SDS011;10347;51.828;6.466;2022-08-11T16:54:34;5.47;;;1.42;;
20375;SDS011;10347;51.828;6.466;2022-08-11T16:57:02;3.00;;;1.50;;
20375;SDS011;10347;51.828;6.466;2022-08-11T16:59:50;1.75;;;1.25;;
20375;SDS011;10347;51.828;6.466;2022-08-11T17:02:17;5.43;;;1.63;;
20375;SDS011;10347;51.828;6.466;2022-08-11T17:05:07;1.13;;;1.08;;
20375;SDS011;10347;51.828;6.466;2022-08-11T17:07:58;1.40;;;1.30;;
20375;SDS011;10347;51.828;6.466;2022-08-11T17:10:48;1.35;;;1.25;;
20375;SDS011;10347;51.828;6.466;2022-08-11T17:13:38;1.23;;;1.13;;
20375;SDS011;10347;51.828;6.466;2022-08-11T17:16:09;1.50;;;1.40;;
20375;SDS011;10347;51.828;6.466;2022-08-11T17:18:45;4.32;;;1.98;;
20375;SDS011;10347;51.828;6.466;2022-08-11T17:21:24;1.88;;;1.45;;
20375;SDS011;10347;51.828;6.466;2022-08-11T17:23:56;3.05;;;1.60;;
20375;SDS011;10347;51.828;6.466;2022-08-11T17:26:36;1.50;;;1.45;;
20375;SDS011;10347;51.828;6.466;2022-08-11T17:32:10;4.55;;;1.20;;
20375;SDS011;10347;51.828;6.466;2022-08-11T17:34:58;1.40;;;1.30;;
20375;SDS011;10347;51.828;6.466;2022-08-11T17:37:50;1.23;;;1.23;;
20375;SDS011;10347;51.828;6.466;2022-08-11T17:40:18;1.58;;;1.20;;
20375;SDS011;10347;51.828;6.466;2022-08-11T17:42:52;1.50;;;1.40;;
20375;SDS011;10347;51.828;6.466;2022-08-11T17:45:39;1.50;;;1.40;;
20375;SDS011;10347;51.828;6.466;2022-08-11T17:48:25;2.35;;;1.00;;
20375;SDS011;10347;51.828;6.466;2022-08-11T17:53:31;2.63;;;1.20;;
20375;SDS011;10347;51.828;6.466;2022-08-11T17:56:26;4.18;;;1.33;;
20375;SDS011;10347;51.828;6.466;2022-08-11T17:59:13;1.30;;;1.20;;
20375;SDS011;10347;51.828;6.466;2022-08-11T18:01:59;1.52;;;1.23;;
20375;SDS011;10347;51.828;6.466;2022-08-11T18:04:46;1.40;;;1.30;;
20375;SDS011;10347;51.828;6.466;2022-08-11T18:07:14;1.27;;;1.20;;
20375;SDS011;10347;51.828;6.466;2022-08-11T18:09:59;2.47;;;1.30;;
20375;SDS011;10347;51.828;6.466;2022-08-11T18:12:46;1.45;;;1.30;;
20375;SDS011;10347;51.828;6.466;2022-08-11T18:15:32;2.78;;;1.17;;
20375;SDS011;10347;51.828;6.466;2022-08-11T18:18:17;4.85;;;1.80;;
20375;SDS011;10347;51.828;6.466;2022-08-11T18:21:01;1.08;;;1.00;;
20375;SDS011;10347;51.828;6.466;2022-08-11T18:23:47;1.40;;;1.30;;
20375;SDS011;10347;51.828;6.466;2022-08-11T18:26:35;1.33;;;1.20;;
20375;SDS011;10347;51.828;6.466;2022-08-11T18:29:21;1.23;;;1.13;;
20375;SDS011;10347;51.828;6.466;2022-08-11T18:32:05;1.77;;;1.10;;
20375;SDS011;10347;51.828;6.466;2022-08-11T18:34:51;1.13;;;1.00;;
20375;SDS011;10347;51.828;6.466;2022-08-11T18:37:37;1.33;;;1.15;;
20375;SDS011;10347;51.828;6.466;2022-08-11T18:40:29;2.75;;;1.50;;
20375;SDS011;10347;51.828;6.466;2022-08-11T18:43:15;3.47;;;1.00;;
20375;SDS011;10347;51.828;6.466;2022-08-11T18:46:05;3.95;;;1.20;;
20375;SDS011;10347;51.828;6.466;2022-08-11T18:48:56;2.72;;;1.50;;
20375;SDS011;10347;51.828;6.466;2022-08-11T18:51:45;3.17;;;1.17;;
20375;SDS011;10347;51.828;6.466;2022-08-11T18:54:33;3.70;;;1.20;;
20375;SDS011;10347;51.828;6.466;2022-08-11T18:57:21;3.60;;;1.25;;
20375;SDS011;10347;51.828;6.466;2022-08-11T19:00:06;3.28;;;1.10;;
20375;SDS011;10347;51.828;6.466;2022-08-11T19:02:51;3.33;;;1.30;;
20375;SDS011;10347;51.828;6.466;2022-08-11T19:05:37;2.20;;;1.30;;